createdAt,value
2023-05-02T00:02:42.700Z,4.71
2023-05-02T00:07:45.318Z,4.65
2023-05-02T00:12:47.497Z,4.62
2023-05-02T00:17:49.768Z,4.59
2023-05-02T00:22:52.039Z,4.56
2023-05-02T00:27:54.897Z,4.52
2023-05-02T00:32:56.980Z,4.46
2023-05-02T00:37:59.926Z,4.45
2023-05-02T00:43:02.083Z,4.39
2023-05-02T00:48:04.393Z,4.36
2023-05-02T00:53:09.452Z,4.35
2023-05-02T00:58:15.128Z,4.36
2023-05-02T01:03:47.676Z,4.35
2023-05-02T01:09:08.572Z,4.38
2023-05-02T01:14:12.278Z,4.22
2023-05-02T01:19:32.860Z,4.21
2023-05-02T01:24:53.004Z,4.22
2023-05-02T01:29:58.780Z,4.05
2023-05-02T01:35:03.072Z,3.96
2023-05-02T01:40:08.487Z,3.81
2023-05-02T01:45:12.848Z,3.76
2023-05-02T01:50:18.876Z,3.71
2023-05-02T01:55:21.594Z,3.63
2023-05-02T02:00:25.835Z,3.63
2023-05-02T02:05:28.905Z,3.62
2023-05-02T02:10:37.737Z,3.71
2023-05-02T02:15:42.522Z,3.71
2023-05-02T02:20:47.249Z,3.69
2023-05-02T02:25:52.432Z,3.88
2023-05-02T02:30:54.516Z,3.98
2023-05-02T02:36:25.181Z,4.26
2023-05-02T02:41:42.817Z,4.39
2023-05-02T02:47:02.837Z,4.49
2023-05-02T02:52:15.708Z,4.57
2023-05-02T02:57:24.633Z,4.69
2023-05-02T03:02:31.244Z,4.84
2023-05-02T03:07:33.580Z,4.90
2023-05-02T03:12:37.599Z,5.04
2023-05-02T03:17:40.378Z,5.16
2023-05-02T03:22:42.460Z,5.27
2023-05-02T03:27:44.690Z,5.43
2023-05-02T03:32:47.774Z,5.50
2023-05-02T03:37:50.970Z,5.65
2023-05-02T03:42:53.085Z,5.78
2023-05-02T03:48:02.224Z,5.89
2023-05-02T03:53:05.672Z,6.02
2023-05-02T03:58:16.963Z,6.18
2023-05-02T04:03:21.581Z,6.33
2023-05-02T04:08:24.549Z,6.47
2023-05-02T04:13:26.700Z,6.62
2023-05-02T04:18:28.966Z,6.77
2023-05-02T04:23:31.097Z,6.96
2023-05-02T04:28:36.487Z,7.14
2023-05-02T04:33:39.442Z,7.30
2023-05-02T04:38:42.271Z,7.48
2023-05-02T04:43:45.171Z,7.56
2023-05-02T04:48:49.020Z,7.82
2023-05-02T04:53:51.276Z,8.03
2023-05-02T04:58:54.437Z,8.13
2023-05-02T05:03:57.347Z,8.50
2023-05-02T05:09:00.259Z,8.78
2023-05-02T05:14:04.357Z,9.89
2023-05-02T05:19:09.150Z,11.77
2023-05-02T05:24:11.337Z,13.50
2023-05-02T05:29:13.505Z,15.12
2023-05-02T05:34:18.220Z,16.56
2023-05-02T05:39:22.238Z,17.81
2023-05-02T05:44:27.330Z,18.87
2023-05-02T05:49:29.566Z,19.18
2023-05-02T05:54:31.851Z,19.34
2023-05-02T05:59:36.564Z,20.41
2023-05-02T06:04:40.544Z,21.60
2023-05-02T06:09:42.904Z,22.72
2023-05-02T06:14:45.058Z,22.88
2023-05-02T06:19:48.978Z,23.11
2023-05-02T06:24:51.150Z,23.40
2023-05-02T06:29:53.946Z,23.60
2023-05-02T06:34:56.137Z,23.76
2023-05-02T06:39:58.442Z,24.29
2023-05-02T06:45:00.888Z,24.57
2023-05-02T06:50:03.685Z,25.34
2023-05-02T06:55:06.442Z,26.41
2023-05-02T07:00:09.313Z,26.64
2023-05-02T07:05:11.614Z,27.81
2023-05-02T07:10:13.842Z,27.78
2023-05-02T07:15:17.142Z,27.47
2023-05-02T07:20:20.058Z,28.40
2023-05-02T07:25:22.110Z,27.96
2023-05-02T07:30:24.227Z,28.14
2023-05-02T07:35:26.446Z,29.61
2023-05-02T07:40:28.745Z,30.31
2023-05-02T07:45:30.937Z,31.20
2023-05-02T07:50:33.051Z,32.00
2023-05-02T07:55:35.203Z,33.00
2023-05-02T08:00:37.303Z,34.14
2023-05-02T08:05:39.305Z,32.80
2023-05-02T08:10:42.431Z,31.41
2023-05-02T08:15:44.812Z,33.26
2023-05-02T08:20:48.453Z,35.05
2023-05-02T08:25:50.676Z,36.59
2023-05-02T08:30:52.786Z,36.60
2023-05-02T08:35:54.980Z,36.62
2023-05-02T08:40:57.080Z,36.80
2023-05-02T08:46:00.467Z,37.31
2023-05-02T08:51:03.848Z,37.42
2023-05-02T08:56:10.434Z,36.91
2023-05-02T09:01:15.820Z,36.08
2023-05-02T09:06:19.791Z,36.85
2023-05-02T09:11:22.397Z,37.28
2023-05-02T09:16:27.305Z,35.60
2023-05-02T09:21:38.236Z,36.28
2023-05-02T09:26:40.598Z,36.82
2023-05-02T09:31:55.677Z,38.01
2023-05-02T09:36:58.903Z,37.33
2023-05-02T09:42:01.567Z,38.19
2023-05-02T09:47:03.861Z,38.04
2023-05-02T09:52:14.116Z,38.39
2023-05-02T09:57:16.600Z,39.22
2023-05-02T10:02:19.357Z,39.97
2023-05-02T10:07:21.699Z,40.61
2023-05-02T10:12:26.874Z,40.05
2023-05-02T10:17:32.342Z,38.21
2023-05-02T10:22:36.351Z,37.86
2023-05-02T10:27:38.621Z,37.39
2023-05-02T10:32:41.519Z,33.61
2023-05-02T10:37:45.608Z,31.72
2023-05-02T10:42:51.481Z,32.94
2023-05-02T10:48:13.548Z,36.08
2023-05-02T10:53:44.894Z,37.75
2023-05-02T10:58:51.423Z,36.73
2023-05-02T11:03:56.054Z,37.45
2023-05-02T11:09:30.906Z,38.31
2023-05-02T11:14:38.972Z,37.34
2023-05-02T11:19:43.733Z,37.34
2023-05-02T11:24:50.244Z,37.73
2023-05-02T11:29:53.817Z,38.41
2023-05-02T11:34:56.166Z,37.96
2023-05-02T11:40:11.989Z,38.72
2023-05-02T11:45:14.183Z,37.50
2023-05-02T11:50:17.028Z,36.19
2023-05-02T11:55:19.190Z,36.20
2023-05-02T12:00:27.717Z,36.76
2023-05-02T12:05:30.374Z,35.35
2023-05-02T12:10:38.966Z,35.30
2023-05-02T12:15:41.789Z,34.68
2023-05-02T12:20:45.265Z,34.00
2023-05-02T12:25:47.402Z,34.70
2023-05-02T12:30:51.370Z,35.38
2023-05-02T12:35:54.180Z,34.23
2023-05-02T12:40:59.240Z,33.11
2023-05-02T12:46:11.259Z,33.37
2023-05-02T12:51:28.729Z,33.17
2023-05-02T12:56:38.610Z,31.89
2023-05-02T13:01:41.530Z,31.94
2023-05-02T13:11:45.861Z,30.49
2023-05-02T13:16:49.432Z,30.55
2023-05-02T13:21:51.582Z,30.34
2023-05-02T13:26:53.601Z,30.35
2023-05-02T13:31:55.647Z,29.77
2023-05-02T13:36:57.840Z,28.17
2023-05-02T13:41:59.984Z,26.16
2023-05-02T13:47:02.073Z,24.92
2023-05-02T13:52:04.457Z,24.00
2023-05-02T13:57:06.620Z,22.95
2023-05-02T14:02:08.862Z,21.59
2023-05-02T14:07:11.446Z,20.57
2023-05-02T14:12:13.559Z,20.20
2023-05-02T14:17:15.674Z,19.80
2023-05-02T14:22:17.806Z,19.42
2023-05-02T14:27:19.939Z,19.10
2023-05-02T14:32:22.133Z,18.91
2023-05-02T14:37:24.294Z,18.64
2023-05-02T14:42:26.482Z,18.77
2023-05-02T14:47:31.273Z,18.72
2023-05-02T14:52:33.496Z,18.83
2023-05-02T14:57:35.740Z,18.86
2023-05-02T15:02:38.213Z,18.80
2023-05-02T15:07:40.337Z,18.60
2023-05-02T15:12:43.286Z,18.45
2023-05-02T15:17:45.360Z,18.42
2023-05-02T15:22:47.543Z,18.25
2023-05-02T15:27:50.332Z,18.02
2023-05-02T15:32:52.561Z,17.79
2023-05-02T15:37:55.594Z,17.63
2023-05-02T15:42:57.735Z,17.46
2023-05-02T15:48:00.025Z,17.27
2023-05-02T15:53:02.194Z,17.10
2023-05-02T15:58:04.421Z,16.94
2023-05-02T16:03:06.761Z,16.81
2023-05-02T16:08:09.015Z,16.75
2023-05-02T16:13:11.192Z,16.64
2023-05-02T16:18:13.308Z,16.56
2023-05-02T16:23:15.394Z,16.45
2023-05-02T16:28:17.596Z,16.34
2023-05-02T16:33:21.570Z,16.22
2023-05-02T16:38:23.748Z,16.13
2023-05-02T16:43:25.649Z,16.57
2023-05-02T16:48:27.822Z,15.94
2023-05-02T16:53:31.072Z,15.90
2023-05-02T16:58:33.240Z,15.82
2023-05-02T17:03:35.534Z,15.73
2023-05-02T17:08:38.229Z,15.65
2023-05-02T17:13:40.376Z,15.59
2023-05-02T17:18:42.298Z,15.99
2023-05-02T17:23:44.462Z,15.48
2023-05-02T17:28:46.525Z,15.32
2023-05-02T17:33:48.350Z,15.71
2023-05-02T17:38:50.399Z,15.16
2023-05-02T17:43:52.509Z,15.47
2023-05-02T17:48:54.483Z,14.96
2023-05-02T17:53:56.568Z,15.25
2023-05-02T17:59:00.532Z,14.79
2023-05-02T18:04:04.250Z,14.63
2023-05-02T18:09:07.387Z,14.58
2023-05-02T18:14:15.059Z,14.50
2023-05-02T18:19:17.571Z,14.46
2023-05-02T18:24:19.591Z,14.35
2023-05-02T18:29:21.751Z,14.30
2023-05-02T18:34:23.609Z,14.71
2023-05-02T18:39:25.951Z,14.21
2023-05-02T18:44:28.066Z,14.01
2023-05-02T18:49:30.165Z,13.87
2023-05-02T18:54:33.559Z,14.18
2023-05-02T18:59:35.559Z,13.65
2023-05-02T19:04:37.437Z,13.99
2023-05-02T19:09:40.420Z,13.47
2023-05-02T19:14:42.616Z,13.36
2023-05-02T19:19:48.083Z,13.25
2023-05-02T19:24:50.939Z,13.14
2023-05-02T19:29:54.391Z,13.08
2023-05-02T19:34:56.964Z,12.99
2023-05-02T19:39:59.437Z,12.92
2023-05-02T19:45:01.916Z,12.87
2023-05-02T19:50:06.733Z,12.82
2023-05-02T19:55:09.560Z,12.79
2023-05-02T20:00:13.018Z,12.73
2023-05-02T20:05:15.388Z,12.64
2023-05-02T20:10:18.490Z,12.57
2023-05-02T20:15:22.172Z,12.55
2023-05-02T20:20:25.132Z,12.50
2023-05-02T20:25:27.299Z,12.46
2023-05-02T20:30:29.402Z,12.36
2023-05-02T20:35:31.682Z,12.32
2023-05-02T20:40:34.106Z,12.26
2023-05-02T20:45:36.288Z,12.17
2023-05-02T20:50:38.170Z,12.57
2023-05-02T20:55:40.232Z,12.14
2023-05-02T21:00:42.300Z,12.46
2023-05-02T21:05:44.364Z,11.92
2023-05-02T21:10:46.389Z,12.33
2023-05-02T21:15:48.474Z,11.88
2023-05-02T21:20:50.734Z,11.76
2023-05-02T21:25:52.868Z,11.78
2023-05-02T21:30:54.808Z,12.14
2023-05-02T21:35:57.698Z,11.87
2023-05-02T21:41:04.772Z,11.93
2023-05-02T21:46:07.019Z,11.85
2023-05-02T21:51:11.474Z,11.78
2023-05-02T21:56:13.464Z,11.86
2023-05-02T22:01:16.109Z,12.28
2023-05-02T22:06:18.278Z,11.93
2023-05-02T22:11:21.775Z,12.32
2023-05-02T22:16:24.116Z,11.85
2023-05-02T22:21:27.318Z,11.91
2023-05-02T22:26:29.468Z,11.94
2023-05-02T22:31:31.879Z,11.88
2023-05-02T22:36:35.664Z,11.82
2023-05-02T22:41:39.298Z,11.76
2023-05-02T22:46:41.515Z,11.69
2023-05-02T22:51:45.266Z,11.69
2023-05-02T22:56:47.402Z,11.73
2023-05-02T23:01:50.825Z,11.76
2023-05-02T23:06:52.936Z,11.76
2023-05-02T23:11:55.087Z,11.71
2023-05-02T23:16:57.517Z,11.73
2023-05-02T23:22:00.020Z,11.71
2023-05-02T23:27:02.186Z,11.68
2023-05-02T23:32:04.827Z,12.07
2023-05-02T23:37:07.065Z,11.62
2023-05-02T23:42:09.099Z,11.57
2023-05-02T23:47:11.131Z,12.00
2023-05-02T23:52:13.246Z,11.64
2023-05-02T23:57:15.541Z,11.53
